Time;durP1;ratioP1;P1;durP2;ratioP2;P2;SDS_P1;SDS_P2;PMS_P1;PMS_P2;Temp;Humidity;BMP_temperature;BMP_pressure;BME280_temperature;BME280_humidity;BME280_pressure;Samples;Min_cycle;Max_cycle;Signal;HPM_P1;HPM_P2
2022/06/07 00:02:20;;;;;;;7.00;5.28;;;;;;;14.74;80.41;101392.31;6269015;22;20006;-60
2022/06/07 00:04:46;;;;;;;7.88;5.15;;;;;;;14.74;80.34;101385.22;6268950;22;20014;-66
2022/06/07 00:07:11;;;;;;;7.38;4.97;;;;;;;14.71;80.70;101389.78;6267873;22;20011;-61
2022/06/07 00:09:37;;;;;;;6.53;5.57;;;;;;;14.73;80.42;101380.84;6240910;22;20015;-61
2022/06/07 00:12:03;;;;;;;6.25;4.70;;;;;;;14.75;80.76;101386.09;6269157;22;20440;-62
2022/06/07 00:14:28;;;;;;;5.80;5.20;;;;;;;14.73;80.64;101382.63;6269685;22;20004;-61
2022/06/07 00:16:54;;;;;;;7.13;4.90;;;;;;;14.70;80.73;101388.06;6269445;22;20362;-61
2022/06/07 00:19:21;;;;;;;5.13;4.47;;;;;;;14.68;80.42;101379.31;6269086;22;20008;-61
2022/06/07 00:21:46;;;;;;;5.18;4.45;;;;;;;14.66;80.71;101379.41;6268066;22;20004;-61
2022/06/07 00:24:12;;;;;;;4.70;4.10;;;;;;;14.66;80.46;101376.75;6267955;22;20081;-61
2022/06/07 00:26:38;;;;;;;7.40;4.57;;;;;;;14.71;80.45;101379.19;6267780;22;20000;-61
2022/06/07 00:29:04;;;;;;;8.10;4.65;;;;;;;14.66;80.47;101372.28;6241619;22;20008;-63
2022/06/07 00:31:29;;;;;;;7.38;4.70;;;;;;;14.61;80.89;101373.41;6269938;22;20022;-60
2022/06/07 00:33:54;;;;;;;5.70;4.75;;;;;;;14.60;80.82;101366.41;6268851;22;20083;-61
2022/06/07 00:36:20;;;;;;;5.43;4.57;;;;;;;14.61;81.00;101369.00;6268747;22;20007;-62
2022/06/07 00:38:45;;;;;;;7.07;4.80;;;;;;;14.59;81.22;101369.94;6240252;22;20022;-61
2022/06/07 00:41:11;;;;;;;7.15;5.53;;;;;;;14.55;81.43;101366.59;6268156;22;20015;-61
2022/06/07 00:43:37;;;;;;;8.38;5.95;;;;;;;14.61;81.08;101363.69;6267501;22;20010;-62
2022/06/07 00:46:07;;;;;;;10.30;6.40;;;;;;;14.58;81.11;101354.97;6268876;22;20006;-61
2022/06/07 00:48:32;;;;;;;10.52;6.50;;;;;;;14.61;81.11;101352.19;6270605;22;20038;-60
2022/06/07 00:51:11;;;;;;;9.48;5.78;;;;;;;14.59;81.04;101343.44;6244775;22;20003;-61
2022/06/07 00:53:36;;;;;;;10.75;6.63;;;;;;;14.57;80.64;101358.56;6243580;22;20004;-60
2022/06/07 00:56:05;;;;;;;6.93;6.20;;;;;;;14.55;80.67;101342.72;6270536;22;20413;-61
2022/06/07 00:58:31;;;;;;;6.68;5.43;;;;;;;14.56;80.61;101354.16;6271667;22;20007;-61
2022/06/07 01:00:57;;;;;;;7.18;6.10;;;;;;;14.54;80.64;101335.69;6269818;22;20004;-61
2022/06/07 01:03:23;;;;;;;10.13;6.68;;;;;;;14.55;80.27;101341.84;6270722;22;20049;-60
2022/06/07 01:05:49;;;;;;;8.90;6.53;;;;;;;14.56;80.07;101336.47;6269825;22;20078;-61
2022/06/07 01:10:59;;;;;;;6.30;5.68;;;;;;;14.61;79.88;101330.97;6272477;22;20445;-61
2022/06/07 01:13:28;;;;;;;8.05;6.32;;;;;;;14.59;79.62;101330.19;6270367;22;20070;-62
2022/06/07 01:16:07;;;;;;;10.55;6.32;;;;;;;14.60;80.08;101335.41;6270713;22;20000;-62
2022/06/07 01:18:33;;;;;;;9.10;6.28;;;;;;;14.56;80.00;101333.84;6270363;22;20031;-61
2022/06/07 01:21:22;;;;;;;8.02;5.55;;;;;;;14.59;79.70;101333.69;6270261;22;20424;-60
2022/06/07 01:23:48;;;;;;;;;;;;;;;14.60;79.39;101337.22;6241634;22;20015;-59
2022/06/07 01:26:13;;;;;;;9.05;5.45;;;;;;;14.54;79.38;101335.69;6270420;22;20230;-60
2022/06/07 01:28:39;;;;;;;7.43;5.32;;;;;;;14.55;79.34;101332.13;6270051;22;20000;-59
2022/06/07 01:31:05;;;;;;;9.13;5.93;;;;;;;14.46;79.22;101330.72;6270807;22;19996;-60
2022/06/07 01:33:30;;;;;;;7.03;5.45;;;;;;;14.55;78.57;101326.81;6270035;22;20008;-61
2022/06/07 01:36:03;;;;;;;8.40;5.22;;;;;;;14.57;78.66;101330.25;6271404;22;20285;-61
2022/06/07 01:38:34;;;;;;;7.45;5.68;;;;;;;14.59;78.21;101317.78;6270328;22;20004;-60
2022/06/07 01:43:43;;;;;;;7.80;5.75;;;;;;;14.69;78.46;101314.75;6270307;22;20030;-60
2022/06/07 01:46:08;;;;;;;8.60;5.75;;;;;;;14.70;78.49;101319.97;6270143;22;20427;-61
2022/06/07 01:48:34;;;;;;;9.27;6.43;;;;;;;14.66;78.42;101313.94;6269522;22;20046;-61
2022/06/07 01:51:00;;;;;;;10.05;6.03;;;;;;;14.69;78.80;101306.78;6268409;22;20007;-62
2022/06/07 01:53:26;;;;;;;6.55;5.90;;;;;;;14.59;79.25;101301.88;6267986;22;20042;-61
2022/06/07 01:55:51;;;;;;;7.95;6.28;;;;;;;14.59;79.43;101301.88;6268719;22;20003;-61
2022/06/07 01:58:16;;;;;;;7.85;6.25;;;;;;;14.62;78.93;101307.06;6270059;22;20000;-62
2022/06/07 02:00:42;;;;;;;7.82;6.13;;;;;;;14.65;79.30;101298.09;6270272;22;20392;-62
2022/06/07 02:03:07;;;;;;;11.70;6.72;;;;;;;14.61;79.48;101305.34;6269377;22;20034;-61
2022/06/07 02:05:32;;;;;;;9.30;6.85;;;;;;;14.56;79.75;101312.63;6270681;22;20423;-61
2022/06/07 02:07:58;;;;;;;8.52;6.70;;;;;;;14.62;79.56;101309.69;6268975;22;20416;-61
2022/06/07 02:10:24;;;;;;;8.70;6.88;;;;;;;14.64;79.88;101299.03;6242922;22;20320;-60
2022/06/07 02:12:50;;;;;;;11.88;6.70;;;;;;;14.64;79.93;101301.69;6268420;22;20026;-60
2022/06/07 02:15:15;;;;;;;9.10;6.90;;;;;;;14.60;79.83;101297.44;6268214;22;20004;-61
2022/06/07 02:17:41;;;;;;;10.32;7.43;;;;;;;14.56;79.89;101298.47;6268918;22;19999;-62
2022/06/07 02:20:06;;;;;;;10.98;8.23;;;;;;;14.58;79.34;101302.81;6269286;22;20111;-62
2022/06/07 02:22:32;;;;;;;14.02;7.60;;;;;;;14.57;79.35;101303.72;6269224;22;20034;-62
2022/06/07 02:24:57;;;;;;;13.55;7.75;;;;;;;14.59;78.95;101304.53;6270749;22;19988;-60
2022/06/07 02:27:23;;;;;;;11.07;7.60;;;;;;;14.59;79.07;101299.22;6268355;22;20061;-61
2022/06/07 02:29:50;;;;;;;10.80;7.85;;;;;;;14.56;78.99;101301.13;6268773;22;19992;-62
2022/06/07 02:32:34;;;;;;;11.43;8.00;;;;;;;14.59;78.65;101301.00;6241145;22;20331;-62
2022/06/07 02:35:00;;;;;;;9.48;6.82;;;;;;;14.58;78.37;101302.81;6269223;22;20053;-61
2022/06/07 02:37:26;;;;;;;10.23;7.78;;;;;;;14.53;78.41;101296.84;6240963;22;20019;-62
2022/06/07 02:39:53;;;;;;;11.70;8.07;;;;;;;14.59;78.10;101296.56;6268561;22;20039;-62
2022/06/07 02:42:21;;;;;;;10.60;7.75;;;;;;;14.53;78.37;101287.09;6267662;22;20000;-61
2022/06/07 02:44:46;;;;;;;10.13;7.72;;;;;;;14.54;78.40;101285.28;6269465;22;20036;-60
2022/06/07 02:47:12;;;;;;;12.18;7.97;;;;;;;14.51;78.18;101286.28;6267735;22;19999;-61
2022/06/07 02:49:37;;;;;;;9.13;7.60;;;;;;;14.49;78.31;101284.66;6268771;22;20063;-60
2022/06/07 02:52:03;;;;;;;9.90;7.93;;;;;;;14.49;78.08;101287.31;6269045;22;20046;-61
2022/06/07 02:54:28;;;;;;;11.40;8.00;;;;;;;14.48;78.28;101286.44;6269260;22;20010;-61
2022/06/07 02:56:55;;;;;;;16.70;8.88;;;;;;;14.45;78.42;101283.91;6270176;22;20004;-61
2022/06/07 02:59:20;;;;;;;10.93;8.13;;;;;;;14.51;77.99;101280.16;6267937;22;20046;-60
2022/06/07 03:01:46;;;;;;;12.68;8.50;;;;;;;14.47;78.32;101281.19;6269714;22;20004;-61
2022/06/07 03:04:11;;;;;;;10.35;8.40;;;;;;;14.47;78.24;101281.19;6269985;22;20034;-61
2022/06/07 03:06:36;;;;;;;10.23;7.90;;;;;;;14.49;78.10;101287.31;6268871;22;19995;-61
2022/06/07 03:09:03;;;;;;;9.65;7.43;;;;;;;14.48;78.33;101286.44;6268569;22;20374;-61
2022/06/07 03:11:28;;;;;;;11.65;8.77;;;;;;;14.48;78.42;101280.28;6269649;22;20043;-60
2022/06/07 03:13:54;;;;;;;11.05;7.82;;;;;;;14.43;78.18;101290.22;6269007;22;20054;-60
2022/06/07 03:16:19;;;;;;;11.63;8.30;;;;;;;14.42;78.19;101293.81;6269759;22;20019;-60
2022/06/07 03:18:44;;;;;;;10.80;7.78;;;;;;;14.42;78.26;101286.69;6242070;22;20004;-61
2022/06/07 03:21:10;;;;;;;9.98;7.53;;;;;;;14.44;78.08;101281.31;6268458;22;20021;-61
2022/06/07 03:23:35;;;;;;;10.13;7.30;;;;;;;14.40;78.40;101294.72;6268989;22;20071;-61
2022/06/07 03:26:11;;;;;;;8.77;6.63;;;;;;;14.39;78.29;101297.44;6269012;22;20367;-61
2022/06/07 03:28:37;;;;;;;10.82;7.88;;;;;;;14.47;78.09;101290.00;6269493;22;20031;-60
2022/06/07 03:31:14;;;;;;;9.80;7.28;;;;;;;14.43;77.92;101288.44;6268954;22;19999;-61
2022/06/07 03:33:41;;;;;;;9.65;6.80;;;;;;;14.49;78.21;101287.31;6269809;22;20000;-61
2022/06/07 03:36:32;;;;;;;9.35;7.30;;;;;;;14.56;77.93;101294.06;6267334;22;20408;-61
2022/06/07 03:38:59;;;;;;;8.55;7.35;;;;;;;14.55;77.81;101294.13;6263416;22;20073;-61
2022/06/07 03:41:26;;;;;;;11.35;7.32;;;;;;;14.59;77.92;101288.63;6267828;22;20502;-61
2022/06/07 03:43:55;;;;;;;9.93;7.35;;;;;;;14.60;77.83;101290.34;6268553;22;20007;-62
2022/06/07 03:46:23;;;;;;;10.80;7.05;;;;;;;14.57;77.74;101287.81;6269324;22;19992;-60
2022/06/07 03:48:48;;;;;;;9.13;7.68;;;;;;;14.56;77.84;101299.34;6267911;22;20008;-61
2022/06/07 03:51:16;;;;;;;9.80;7.40;;;;;;;14.63;77.52;101299.97;6268554;22;20002;-59
2022/06/07 03:53:43;;;;;;;10.25;6.70;;;;;;;14.68;77.54;101297.97;6267656;22;20003;-61
2022/06/07 03:56:08;;;;;;;9.82;6.75;;;;;;;14.73;77.55;101295.97;6267202;22;20027;-60
2022/06/07 03:58:34;;;;;;;10.50;6.30;;;;;;;14.75;77.61;101296.75;6269461;22;20408;-60
2022/06/07 04:01:01;;;;;;;8.38;6.65;;;;;;;14.78;77.18;101296.66;6269221;22;20404;-61
2022/06/07 04:03:27;;;;;;;11.30;6.97;;;;;;;14.79;77.07;101297.53;6269261;22;20000;-60
2022/06/07 04:05:53;;;;;;;7.07;6.40;;;;;;;14.81;76.61;101303.59;6269271;22;20004;-60
2022/06/07 04:08:18;;;;;;;10.80;6.70;;;;;;;14.82;76.93;101302.69;6265666;22;20309;-61
2022/06/07 04:10:50;;;;;;;10.48;6.18;;;;;;;14.88;76.52;101302.44;6268724;22;20010;-59
2022/06/07 04:13:16;;;;;;;10.65;6.20;;;;;;;14.88;76.50;101306.88;6238305;23;20012;-61
2022/06/07 04:15:42;;;;;;;9.10;6.00;;;;;;;14.85;76.70;101307.88;6238485;22;20001;-61
2022/06/07 04:18:08;;;;;;;10.10;6.38;;;;;;;14.94;76.30;101308.38;6238189;22;20005;-60
2022/06/07 04:20:35;;;;;;;9.52;6.25;;;;;;;15.01;75.98;101310.69;6236580;23;20020;-60
2022/06/07 04:23:01;;;;;;;11.70;6.22;;;;;;;15.03;75.92;101310.63;6237611;22;20111;-60
2022/06/07 04:25:27;;;;;;;11.27;5.80;;;;;;;15.01;75.97;101316.00;6239043;22;20480;-61
2022/06/07 04:27:53;;;;;;;6.90;5.72;;;;;;;15.05;75.62;101313.22;6236653;23;20004;-60
2022/06/07 04:30:19;;;;;;;8.57;5.80;;;;;;;15.19;75.47;101313.44;6237946;22;20007;-60
2022/06/07 04:32:47;;;;;;;7.63;6.00;;;;;;;15.15;75.33;101318.00;6238329;23;20139;-61
2022/06/07 04:35:18;;;;;;;8.38;5.63;;;;;;;15.22;75.46;101312.41;6238250;22;20007;-62
2022/06/07 04:37:45;;;;;;;7.68;5.88;;;;;;;15.28;75.17;101320.09;6237146;22;20010;-61
2022/06/07 04:40:11;;;;;;;8.10;5.47;;;;;;;15.25;75.45;101310.50;6237843;22;20008;-62
2022/06/07 04:42:36;;;;;;;6.60;5.38;;;;;;;15.27;75.54;101319.22;6238707;22;20005;-61
2022/06/07 04:45:03;;;;;;;11.77;5.32;;;;;;;15.35;75.18;101316.22;6236731;23;20028;-61
2022/06/07 04:47:28;;;;;;;7.70;4.93;;;;;;;15.35;75.17;101316.22;6239035;22;20366;-60
2022/06/07 04:49:54;;;;;;;7.72;4.63;;;;;;;15.38;75.23;101328.53;6236944;23;20039;-60
2022/06/07 04:52:19;;;;;;;8.70;5.57;;;;;;;15.43;75.07;101326.50;6235719;22;19992;-59
2022/06/07 04:54:44;;;;;;;12.02;5.95;;;;;;;15.60;74.65;101324.84;6237134;22;20008;-60
2022/06/07 04:57:10;;;;;;;10.00;4.90;;;;;;;15.59;74.65;101329.28;6236654;23;20045;-60
2022/06/07 04:59:35;;;;;;;6.90;4.68;;;;;;;15.68;74.27;101329.81;6236000;22;20001;-60
2022/06/07 05:02:01;;;;;;;8.77;5.55;;;;;;;15.61;74.14;101332.75;6237668;23;20004;-60
2022/06/07 05:04:26;;;;;;;9.60;5.32;;;;;;;15.59;74.60;101328.44;6236609;22;20009;-60
2022/06/07 05:06:51;;;;;;;5.82;4.90;;;;;;;15.69;73.93;101331.50;6235497;22;20034;-60
2022/06/07 05:09:20;;;;;;;12.30;5.20;;;;;;;15.76;73.92;101328.50;6237999;23;20440;-60
2022/06/07 05:11:47;;;;;;;11.32;5.50;;;;;;;15.91;73.84;101329.56;6241351;22;20008;-60
2022/06/07 05:14:12;;;;;;;9.60;5.50;;;;;;;15.90;73.13;101327.81;6268499;22;20008;-61
2022/06/07 05:16:39;;;;;;;8.85;4.97;;;;;;;15.94;72.64;101328.53;6268834;22;20316;-60
2022/06/07 05:19:05;;;;;;;9.05;5.10;;;;;;;15.92;72.07;101338.38;6240644;22;20000;-60
2022/06/07 05:21:30;;;;;;;5.07;4.57;;;;;;;16.07;72.11;101342.09;6266989;22;20014;-60
2022/06/07 05:23:56;;;;;;;8.15;5.15;;;;;;;16.16;72.01;101341.66;6268468;22;20034;-61
2022/06/07 05:26:47;;;;;;;7.07;4.78;;;;;;;16.26;71.29;101346.53;6268565;22;20004;-59
2022/06/07 05:29:23;;;;;;;8.45;5.55;;;;;;;16.30;70.98;101340.09;6241597;22;20078;-59
2022/06/07 05:31:49;;;;;;;6.25;4.93;;;;;;;16.37;70.35;101340.63;6241908;22;20035;-60
2022/06/07 05:34:14;;;;;;;8.68;4.90;;;;;;;16.41;70.46;101343.06;6269523;22;20000;-60
2022/06/07 05:36:40;;;;;;;10.07;4.95;;;;;;;16.38;69.69;101335.25;6268121;22;20483;-60
2022/06/07 05:39:06;;;;;;;7.68;4.55;;;;;;;16.34;69.64;101331.03;6269522;22;20008;-60
2022/06/07 05:41:32;;;;;;;10.38;5.13;;;;;;;16.35;70.13;101337.22;6269944;22;20004;-61
2022/06/07 05:43:58;;;;;;;6.80;4.90;;;;;;;16.53;69.81;101346.06;6270525;22;20428;-59
2022/06/07 05:46:23;;;;;;;6.82;4.53;;;;;;;16.36;69.40;101339.81;6269877;22;20007;-60
2022/06/07 05:48:48;;;;;;;8.15;5.10;;;;;;;16.39;69.61;101344.97;6268680;22;20000;-61
2022/06/07 05:51:14;;;;;;;7.70;4.82;;;;;;;16.52;69.05;101339.00;6268569;22;20355;-59
2022/06/07 05:53:40;;;;;;;5.72;4.72;;;;;;;16.49;68.36;101342.69;6270047;22;20008;-60
2022/06/07 05:56:07;;;;;;;6.65;4.65;;;;;;;16.60;68.41;101349.25;6269808;22;20008;-61
2022/06/07 05:58:33;;;;;;;10.40;5.03;;;;;;;16.47;68.11;101344.59;6269424;22;20011;-61
2022/06/07 06:00:58;;;;;;;12.45;5.25;;;;;;;16.45;68.61;101343.78;6270179;22;20007;-63
2022/06/07 06:03:23;;;;;;;7.85;4.03;;;;;;;16.55;68.25;101349.50;6268205;22;20086;-60
2022/06/07 06:05:49;;;;;;;7.47;4.65;;;;;;;16.56;68.17;101359.22;6269469;22;20094;-58
2022/06/07 06:11:03;;;;;;;8.65;4.95;;;;;;;16.64;67.84;101356.13;6268908;22;20348;-61
2022/06/07 06:13:29;;;;;;;13.77;5.40;;;;;;;16.53;68.15;101357.53;6268497;22;20087;-61
2022/06/07 06:16:02;;;;;;;6.70;5.18;;;;;;;16.50;68.43;101351.53;6268529;22;20031;-61
2022/06/07 06:18:28;;;;;;;9.35;5.40;;;;;;;16.52;68.82;101352.31;6269739;22;20004;-61
2022/06/07 06:20:53;;;;;;;12.18;5.30;;;;;;;16.55;68.68;101350.34;6269378;22;20039;-61
2022/06/07 06:23:19;;;;;;;12.55;5.07;;;;;;;16.62;68.37;101350.88;6268896;22;19999;-60
2022/06/07 06:25:44;;;;;;;13.55;4.95;;;;;;;16.56;68.10;101348.56;6269252;22;20122;-60
2022/06/07 06:28:09;;;;;;;13.13;4.95;;;;;;;16.61;67.64;101349.19;6269640;22;20018;-58
2022/06/07 06:30:35;;;;;;;8.10;4.90;;;;;;;16.63;67.59;101339.34;6269107;22;20003;-59
2022/06/07 06:33:00;;;;;;;9.77;5.40;;;;;;;16.68;67.78;101352.41;6270013;22;20416;-60
2022/06/07 06:35:25;;;;;;;8.10;4.72;;;;;;;16.80;68.13;101366.88;6269862;22;20448;-62
2022/06/07 06:37:50;;;;;;;10.45;4.60;;;;;;;16.94;66.84;101371.44;6269052;22;20495;-61
2022/06/07 06:40:16;;;;;;;6.50;4.53;;;;;;;16.88;66.45;101369.09;6267795;22;20432;-60
2022/06/07 06:42:41;;;;;;;8.25;5.18;;;;;;;17.02;66.83;101363.06;6269124;22;20443;-61
2022/06/07 06:45:07;;;;;;;10.80;4.90;;;;;;;17.14;66.15;101369.56;6267592;22;20046;-61
2022/06/07 06:47:32;;;;;;;8.10;5.05;;;;;;;17.22;66.19;101366.50;6251310;22;20272;-60
2022/06/07 06:49:57;;;;;;;9.07;5.88;;;;;;;17.34;65.80;101373.81;6243863;22;20007;-59
2022/06/07 06:52:24;;;;;;;10.88;4.97;;;;;;;17.13;65.63;101363.38;6242945;22;20014;-60
2022/06/07 06:54:49;;;;;;;9.65;5.07;;;;;;;17.09;65.74;101360.97;6243935;22;20444;-61
2022/06/07 06:57:14;;;;;;;6.20;5.22;;;;;;;17.17;66.09;101362.28;6243778;22;20242;-61
2022/06/07 06:59:40;;;;;;;10.68;5.65;;;;;;;17.17;66.40;101367.63;6243176;22;19999;-59
2022/06/07 07:02:05;;;;;;;10.48;5.30;;;;;;;17.30;65.89;101377.59;6242991;22;20010;-61
2022/06/07 07:04:30;;;;;;;6.55;5.20;;;;;;;17.10;66.00;101376.84;6243938;22;20291;-61
2022/06/07 07:06:56;;;;;;;14.75;5.85;;;;;;;17.10;65.47;101374.19;6244442;22;20064;-60
2022/06/07 07:09:24;;;;;;;8.98;4.95;;;;;;;17.21;66.16;101367.44;6243571;22;20032;-59
2022/06/07 07:11:52;;;;;;;11.65;5.35;;;;;;;17.26;65.65;101374.25;6217505;22;20094;-62
2022/06/07 07:14:17;;;;;;;10.95;4.43;;;;;;;17.39;65.80;101360.25;6242804;22;20000;-58
2022/06/07 07:16:48;;;;;;;10.30;5.35;;;;;;;17.37;66.10;101367.47;6244486;22;19988;-60
2022/06/07 07:19:15;;;;;;;8.32;4.93;;;;;;;17.50;64.92;101373.00;6242420;22;20008;-61
2022/06/07 07:21:43;;;;;;;8.18;4.65;;;;;;;17.43;64.84;101373.31;6244126;22;20435;-60
2022/06/07 07:24:12;;;;;;;7.27;4.43;;;;;;;17.49;64.57;101377.44;6244063;22;20003;-60
2022/06/07 07:26:38;;;;;;;10.98;5.68;;;;;;;17.38;64.17;101372.72;6244690;22;20229;-60
2022/06/07 07:29:04;;;;;;;8.93;5.15;;;;;;;17.36;64.95;101379.94;6243049;22;20031;-61
2022/06/07 07:31:33;;;;;;;8.10;5.10;;;;;;;17.53;64.23;101378.16;6241971;22;20008;-60
2022/06/07 07:34:00;;;;;;;11.25;5.13;;;;;;;17.52;64.03;101371.13;6243061;22;20000;-61
2022/06/07 07:36:26;;;;;;;10.48;4.97;;;;;;;17.63;63.87;101375.81;6243556;22;20027;-65
2022/06/07 07:38:52;;;;;;;7.15;4.53;;;;;;;17.65;62.60;101377.47;6244036;22;20320;-61
2022/06/07 07:41:23;;;;;;;10.35;4.50;;;;;;;17.89;62.55;101378.84;6243575;22;20122;-60
2022/06/07 07:43:49;;;;;;;7.25;4.78;;;;;;;17.98;62.57;101367.66;6243990;22;20011;-60
2022/06/07 07:46:15;;;;;;;10.05;4.78;;;;;;;18.24;61.76;101368.00;6243753;22;20003;-61
2022/06/07 07:48:41;;;;;;;7.88;5.00;;;;;;;18.11;62.11;101366.97;6242561;22;20428;-61
2022/06/07 07:51:09;;;;;;;7.13;4.57;;;;;;;18.22;61.72;101364.56;6240589;22;20008;-60
2022/06/07 07:53:34;;;;;;;8.07;4.75;;;;;;;18.33;61.00;101366.59;6242775;22;20343;-59
2022/06/07 07:56:00;;;;;;;6.28;4.07;;;;;;;18.30;61.28;101375.63;6242958;22;20003;-61
2022/06/07 07:58:25;;;;;;;7.00;4.28;;;;;;;18.60;60.95;101373.91;6243420;22;20003;-59
2022/06/07 08:00:51;;;;;;;6.03;4.32;;;;;;;18.73;61.05;101384.75;6241899;22;20336;-62
2022/06/07 08:03:18;;;;;;;8.90;4.63;;;;;;;18.82;61.26;101364.63;6243832;22;20053;-62
2022/06/07 08:05:44;;;;;;;16.38;5.65;;;;;;;18.87;60.35;101375.88;6242479;22;20511;-62
2022/06/07 08:08:11;;;;;;;9.18;4.75;;;;;;;18.72;60.67;101376.81;6242489;22;20050;-60
2022/06/07 08:10:37;;;;;;;9.27;5.20;;;;;;;18.64;60.67;101372.81;6243791;22;20004;-60
2022/06/07 08:13:03;;;;;;;9.75;4.90;;;;;;;18.48;62.03;101390.66;6243961;22;20514;-60
2022/06/07 08:15:31;;;;;;;12.40;5.22;;;;;;;18.61;60.81;101389.00;6243935;22;20035;-60
2022/06/07 08:17:57;;;;;;;8.88;4.30;;;;;;;18.72;60.16;101380.31;6243210;22;20021;-58
2022/06/07 08:20:24;;;;;;;9.70;5.50;;;;;;;18.68;59.73;101377.00;6240677;22;20475;-59
2022/06/07 08:22:50;;;;;;;7.68;5.60;;;;;;;18.82;59.43;101378.81;6243317;22;20004;-60
2022/06/07 08:25:16;;;;;;;6.93;4.95;;;;;;;18.85;59.22;101369.78;6245729;22;20071;-60
2022/06/07 08:27:42;;;;;;;7.43;4.55;;;;;;;18.99;60.05;101373.44;6269335;22;20000;-60
2022/06/07 08:30:08;;;;;;;10.07;5.30;;;;;;;18.76;59.80;101391.69;6268515;22;20008;-59
2022/06/07 08:32:34;;;;;;;7.68;4.70;;;;;;;18.96;58.27;101376.28;6267352;22;20007;-61
2022/06/07 08:37:44;;;;;;;6.75;4.68;;;;;;;19.06;57.34;101380.09;6267511;22;20023;-60
2022/06/07 08:40:15;;;;;;;4.95;3.85;;;;;;;18.90;57.00;101394.38;6268704;22;19999;-59
2022/06/07 08:42:52;;;;;;;7.82;4.10;;;;;;;19.01;56.47;101376.84;6268224;22;20000;-61
2022/06/07 08:45:22;;;;;;;5.60;4.40;;;;;;;18.93;56.01;101375.50;6241139;22;20063;-59
2022/06/07 08:47:56;;;;;;;6.55;4.75;;;;;;;19.00;57.00;101364.47;6238848;22;20053;-59
2022/06/07 08:50:23;;;;;;;7.03;4.25;;;;;;;19.14;57.26;101369.81;6211660;22;20000;-60
2022/06/07 08:52:52;;;;;;;6.45;4.40;;;;;;;19.11;56.64;101379.84;6214971;22;20436;-61
2022/06/07 08:55:26;;;;;;;5.82;4.28;;;;;;;19.23;57.81;101372.91;6216061;22;20509;-60
2022/06/07 08:58:00;;;;;;;5.82;4.40;;;;;;;19.40;57.89;101377.16;6243133;22;20011;-61
2022/06/07 09:00:31;;;;;;;8.57;4.90;;;;;;;19.48;56.62;101380.22;6242697;22;20035;-59
2022/06/07 09:03:07;;;;;;;9.10;4.90;;;;;;;19.37;57.16;101380.03;6242589;22;20149;-61
2022/06/07 09:05:33;;;;;;;9.88;4.88;;;;;;;19.52;57.79;101389.75;6215991;22;20316;-61
2022/06/07 09:07:58;;;;;;;8.77;4.47;;;;;;;19.51;57.62;101384.50;6245174;22;20010;-60
2022/06/07 09:13:21;;;;;;;11.07;6.32;;;;;;;19.17;59.08;101392.81;6211948;23;20255;-61
2022/06/07 09:15:49;;;;;;;10.18;6.22;;;;;;;19.10;59.65;101380.78;6215004;22;20004;-61
2022/06/07 09:18:16;;;;;;;8.27;6.30;;;;;;;19.09;59.20;101385.28;6213311;22;20008;-60
2022/06/07 09:20:45;;;;;;;11.05;6.35;;;;;;;18.97;58.87;101375.31;6212554;22;20343;-60
2022/06/07 09:23:43;;;;;;;9.23;6.28;;;;;;;19.14;59.11;101385.84;6212389;23;20093;-61
2022/06/07 09:26:36;;;;;;;12.75;5.78;;;;;;;19.25;59.64;101390.53;6208826;22;20040;-60
2022/06/07 09:29:18;;;;;;;15.05;5.72;;;;;;;19.54;58.61;101374.47;6232718;22;20019;-61
2022/06/07 09:31:44;;;;;;;15.80;6.88;;;;;;;19.45;58.05;101372.41;6240114;22;20001;-60
2022/06/07 09:34:17;;;;;;;7.13;5.10;;;;;;;19.63;57.87;101362.31;6237826;22;20010;-60
2022/06/07 09:36:47;;;;;;;9.20;5.70;;;;;;;19.64;58.29;101374.75;6238945;22;20000;-61
2022/06/07 09:39:26;;;;;;;8.25;5.00;;;;;;;19.69;58.13;101388.66;6239861;22;20000;-61
2022/06/07 09:41:54;;;;;;;8.23;5.20;;;;;;;19.61;58.03;101374.94;6238739;22;20015;-61
2022/06/07 09:44:30;;;;;;;8.90;4.80;;;;;;;19.77;56.93;101377.47;6238152;22;20004;-62
2022/06/07 09:47:19;;;;;;;7.60;4.85;;;;;;;19.94;57.65;101383.56;6239462;22;20004;-61
2022/06/07 09:49:44;;;;;;;;;;;;;;;19.97;56.60;101379.81;6238725;22;20023;-61
2022/06/07 09:52:20;;;;;;;8.50;4.97;;;;;;;19.81;56.81;101383.50;6238835;23;20570;-62
2022/06/07 09:54:48;;;;;;;6.63;4.13;;;;;;;20.29;56.20;101377.72;6239310;22;20318;-60
2022/06/07 09:57:23;;;;;;;8.27;4.22;;;;;;;20.56;55.48;101370.63;6239223;22;20091;-61
2022/06/07 09:59:57;;;;;;;6.82;4.18;;;;;;;20.90;55.79;101378.16;6236602;23;20007;-61
2022/06/07 10:02:26;;;;;;;5.38;4.72;;;;;;;20.94;53.95;101375.19;6237554;22;20036;-61
2022/06/07 10:04:56;;;;;;;7.13;4.80;;;;;;;20.90;52.84;101376.34;6238559;23;20540;-62
2022/06/07 10:07:50;;;;;;;7.05;4.40;;;;;;;20.87;53.31;101394.41;6238094;22;20012;-60
2022/06/07 10:10:24;;;;;;;7.45;4.70;;;;;;;20.78;52.88;101385.19;6237795;23;20008;-61
2022/06/07 10:13:09;;;;;;;6.28;4.88;;;;;;;20.89;53.85;101381.78;6264265;22;20098;-62
2022/06/07 10:15:38;;;;;;;9.15;5.25;;;;;;;20.82;52.96;101384.88;6242523;22;20056;-61
2022/06/07 10:18:27;;;;;;;9.27;4.28;;;;;;;20.83;53.63;101389.28;6269498;22;20083;-62
2022/06/07 10:21:08;;;;;;;8.52;4.40;;;;;;;20.82;52.53;101387.56;6268775;22;20432;-61
2022/06/07 10:24:05;;;;;;;7.60;4.50;;;;;;;20.75;52.37;101398.78;6267806;22;20015;-57
2022/06/07 10:26:34;;;;;;;7.10;4.35;;;;;;;20.64;53.67;101384.31;6269839;22;20018;-60
2022/06/07 10:29:23;;;;;;;7.57;4.68;;;;;;;20.75;52.34;101388.09;6269792;22;19996;-55
2022/06/07 10:31:55;;;;;;;6.10;4.90;;;;;;;20.99;52.68;101371.31;6268231;22;20015;-57
2022/06/07 10:34:37;;;;;;;5.93;4.75;;;;;;;21.05;52.92;101376.25;6241078;22;20004;-61
2022/06/07 10:37:18;;;;;;;7.95;5.80;;;;;;;21.01;53.30;101385.47;6267144;22;20038;-63
2022/06/07 10:40:02;;;;;;;7.90;5.38;;;;;;;20.95;53.53;101384.91;6267761;22;20004;-61
2022/06/07 10:42:51;;;;;;;5.93;5.22;;;;;;;20.96;53.32;101378.59;6269531;22;20007;-58
2022/06/07 10:45:25;;;;;;;8.35;5.20;;;;;;;21.00;53.50;101379.25;6268652;22;20000;-59
2022/06/07 10:47:50;;;;;;;6.13;4.85;;;;;;;21.12;53.71;101382.00;6269381;22;20408;-62
2022/06/07 10:50:21;;;;;;;5.95;4.68;;;;;;;21.20;54.06;101375.13;6268234;22;20003;-60
2022/06/07 10:52:51;;;;;;;7.40;5.10;;;;;;;21.17;54.67;101379.88;6240868;22;19999;-58
2022/06/07 10:55:28;;;;;;;6.30;5.15;;;;;;;21.50;53.72;101377.56;6269503;22;20077;-61
2022/06/07 10:58:04;;;;;;;11.93;6.10;;;;;;;21.36;54.16;101389.28;6268369;22;20061;-61
2022/06/07 11:00:37;;;;;;;6.70;5.53;;;;;;;21.15;54.99;101381.78;6241911;22;20007;-60
2022/06/07 11:03:06;;;;;;;9.10;5.35;;;;;;;20.95;54.67;101384.91;6268462;22;20015;-62
2022/06/07 11:11:38;;;;;;;5.97;5.13;;;;;;;20.25;57.06;101394.06;6174574;23;20026;-60
2022/06/07 11:14:22;;;;;;;5.63;5.00;;;;;;;20.05;56.96;101389.09;6214703;22;20027;-62
2022/06/07 11:17:10;;;;;;;6.10;5.07;;;;;;;20.04;57.76;101392.72;6267835;22;20370;-61
2022/06/07 11:19:36;;;;;;;7.63;5.80;;;;;;;19.94;57.62;101392.44;6268992;22;20003;-59
2022/06/07 11:22:03;;;;;;;6.13;5.43;;;;;;;19.92;58.86;101394.34;6268557;22;20003;-61
2022/06/07 11:24:33;;;;;;;7.95;6.40;;;;;;;19.98;58.90;101393.09;6241716;22;20053;-62
2022/06/07 11:27:04;;;;;;;9.60;6.40;;;;;;;20.02;57.80;101394.63;6269146;22;20000;-61
2022/06/07 11:29:31;;;;;;;9.05;6.93;;;;;;;19.81;58.18;101402.22;6268816;22;20436;-61
2022/06/07 11:31:57;;;;;;;9.88;6.28;;;;;;;19.88;57.57;101398.19;6241999;22;20045;-59
2022/06/07 11:34:30;;;;;;;11.15;7.60;;;;;;;20.20;57.66;101403.25;6268440;22;20032;-59
2022/06/07 11:37:07;;;;;;;8.88;6.97;;;;;;;20.54;56.13;101389.47;6267807;22;20022;-60
2022/06/07 11:39:38;;;;;;;10.40;6.70;;;;;;;20.90;54.48;101392.44;6269134;22;20054;-60
2022/06/07 11:42:06;;;;;;;8.85;6.93;;;;;;;21.19;54.80;101399.41;6268748;22;20090;-60
2022/06/07 11:44:38;;;;;;;9.70;6.75;;;;;;;21.45;54.54;101394.84;6268876;22;20007;-61
2022/06/07 11:47:06;;;;;;;9.02;6.70;;;;;;;21.45;54.07;101389.50;6268323;22;20000;-64
2022/06/07 11:49:39;;;;;;;9.73;6.97;;;;;;;21.48;53.56;101387.53;6269359;22;20006;-63
2022/06/07 11:52:13;;;;;;;9.07;7.18;;;;;;;21.39;53.69;101383.69;6265658;22;20038;-60